Time;durP1;ratioP1;P1;durP2;ratioP2;P2;SDS_P1;SDS_P2;PMS_P1;PMS_P2;Temp;Humidity;BMP_temperature;BMP_pressure;BME280_temperature;BME280_humidity;BME280_pressure;Samples;Min_cycle;Max_cycle;Signal;HPM_P1;HPM_P2
2021/01/01 00:00:05;;;;;;;;;;;;;;;-0.48;89.26;100383.28;5056179;28;864;-77
2021/01/01 00:02:31;;;;;;;;;;;;;;;-0.39;89.52;100387.81;5053387;28;1196;-77
2021/01/01 00:04:56;;;;;;;;;;;;;;;-0.29;89.09;100391.56;5055230;28;775;-77
2021/01/01 00:07:21;;;;;;;;;;;;;;;-0.25;88.96;100387.19;5054513;28;1254;-78
2021/01/01 00:09:47;;;;;;;;;;;;;;;-0.17;89.28;100392.03;5055122;28;848;-78
2021/01/01 00:12:12;;;;;;;;;;;;;;;-0.13;88.53;100387.66;5054871;28;986;-78
2021/01/01 00:14:37;;;;;;;;;;;;;;;-0.09;88.50;100393.31;5053360;28;1953;-78
2021/01/01 00:17:05;;;;;;;;;;;;;;;-0.06;88.48;100387.34;5055027;28;1372;-78
2021/01/01 00:19:30;;;;;;;;;;;;;;;-0.06;88.66;100390.03;5054050;28;992;-78
2021/01/01 00:21:55;;;;;;;;;;;;;;;-0.05;88.84;100383.53;5055109;28;872;-77
2021/01/01 00:24:21;;;;;;;;;;;;;;;-0.01;88.43;100382.66;5053782;28;1648;-78
2021/01/01 00:26:50;;;;;;;;;;;;;;;0.03;88.75;100385.63;5055348;28;1337;-78
2021/01/01 00:29:15;;;;;;;;;;;;;;;0.04;88.19;100387.25;5056247;28;896;-77
2021/01/01 00:31:40;;;;;;;;;;;;;;;0.08;88.81;100387.50;5057197;28;963;-78
2021/01/01 00:34:05;;;;;;;;;;;;;;;0.11;88.05;100389.66;5057664;28;1943;-78
2021/01/01 00:36:31;;;;;;;;;;;;;;;0.14;88.58;100389.06;5060083;28;1449;-78
2021/01/01 00:38:56;;;;;;;;;;;;;;;0.14;88.25;100386.38;5059762;28;1066;-78
2021/01/01 00:41:23;;;;;;;;;;;;;;;0.15;88.36;100388.78;5062466;28;1122;-78
2021/01/01 00:43:50;;;;;;;;;;;;;;;0.17;88.48;100385.78;5062932;28;845;-78
2021/01/01 00:46:15;;;;;;;;;;;;;;;0.15;87.93;100387.97;5062036;28;1766;-78
2021/01/01 00:48:40;;;;;;;;;;;;;;;0.13;88.30;100382.81;5060853;28;1027;-77
2021/01/01 00:51:05;;;;;;;;;;;;;;;0.13;88.63;100387.44;5061607;28;861;-78
2021/01/01 00:53:31;;;;;;;;;;;;;;;0.15;88.16;100388.78;5061516;28;852;-78
2021/01/01 00:55:56;;;;;;;;;;;;;;;0.17;88.13;100388.50;5059149;28;1878;-78
2021/01/01 00:58:21;;;;;;;;;;;;;;;0.20;88.54;100397.97;5062568;28;816;-78
2021/01/01 01:00:47;;;;;;;;;;;;;;;0.22;88.34;100396.59;5070823;28;1035;-78
2021/01/01 01:03:12;;;;;;;;;;;;;;;0.26;88.55;100402.25;5074029;28;966;-78
2021/01/01 01:05:37;;;;;;;;;;;;;;;0.28;88.41;100400.09;5075053;28;1035;-78
2021/01/01 01:08:03;;;;;;;;;;;;;;;0.31;88.40;100403.03;5067865;28;1361;-78
2021/01/01 01:10:28;;;;;;;;;;;;;;;0.33;88.31;100392.69;5070653;28;1054;-78
2021/01/01 01:12:53;;;;;;;;;;;;;;;0.34;88.47;100397.03;5074059;28;1117;-78
2021/01/01 01:15:19;;;;;;;;;;;;;;;0.36;87.86;100394.03;5077096;28;1935;-78
2021/01/01 01:17:44;;;;;;;;;;;;;;;0.37;87.92;100392.94;5073942;28;1285;-78
2021/01/01 01:20:10;;;;;;;;;;;;;;;0.39;87.75;100398.09;5059035;28;1114;-78
2021/01/01 01:22:36;;;;;;;;;;;;;;;0.40;88.21;100400.53;5057680;28;889;-78
2021/01/01 01:25:02;;;;;;;;;;;;;;;0.41;87.73;100404.03;5057309;28;797;-78
2021/01/01 01:27:27;;;;;;;;;;;;;;;0.40;88.21;100396.97;5057651;28;1257;-77
2021/01/01 01:29:52;;;;;;;;;;;;;;;0.41;87.55;100406.75;5057297;28;856;-77
2021/01/01 01:32:18;;;;;;;;;;;;;;;0.39;87.77;100404.31;5057709;28;852;-78
2021/01/01 01:34:43;;;;;;;;;;;;;;;0.37;88.26;100407.31;5057420;28;1886;-78
2021/01/01 01:37:09;;;;;;;;;;;;;;;0.37;87.78;100409.22;5060033;28;1255;-77
2021/01/01 01:39:34;;;;;;;;;;;;;;;0.36;88.21;100407.59;5058003;28;995;-78
2021/01/01 01:41:59;;;;;;;;;;;;;;;0.31;88.02;100413.06;5057316;28;972;-78
2021/01/01 01:44:25;;;;;;;;;;;;;;;0.24;87.87;100415.31;5057227;28;943;-77
2021/01/01 01:46:51;;;;;;;;;;;;;;;0.10;88.49;100413.25;5059384;28;1309;-77
2021/01/01 01:49:17;;;;;;;;;;;;;;;-0.01;89.08;100426.09;5056785;28;825;-78
2021/01/01 01:51:47;;;;;;;;;;;;;;;-0.11;89.15;100419.94;5055566;28;867;-77
2021/01/01 01:54:15;;;;;;;;;;;;;;;-0.15;89.65;100421.59;5057451;28;1959;-77
2021/01/01 01:56:43;;;;;;;;;;;;;;;-0.20;89.46;100419.72;5056967;28;1371;-77
2021/01/01 01:59:10;;;;;;;;;;;;;;;-0.27;89.61;100416.53;5056685;28;896;-78
2021/01/01 02:01:35;;;;;;;;;;;;;;;-0.34;90.22;100421.47;5056643;28;777;-77
2021/01/01 02:04:00;;;;;;;;;;;;;;;-0.38;89.84;100415.78;5056747;28;900;-77
2021/01/01 02:06:26;;;;;;;;;;;;;;;-0.49;89.46;100420.44;5056177;28;1361;-77
2021/01/01 02:08:51;;;;;;;;;;;;;;;-0.52;90.28;100425.63;5056556;28;984;-77
2021/01/01 02:11:17;;;;;;;;;;;;;;;-0.59;90.16;100426.75;5056903;28;874;-78
2021/01/01 02:13:46;;;;;;;;;;;;;;;-0.58;90.87;100422.13;5056514;28;872;-77
2021/01/01 02:16:16;;;;;;;;;;;;;;;-0.60;90.32;100427.81;5054777;28;2010;-78
2021/01/01 02:18:43;;;;;;;;;;;;;;;-0.63;90.36;100431.09;5056565;28;971;-77
2021/01/01 02:21:13;;;;;;;;;;;;;;;-0.65;90.97;100419.72;5056498;28;877;-77
2021/01/01 02:23:38;;;;;;;;;;;;;;;-0.63;90.92;100425.66;5056355;28;979;-77
2021/01/01 02:26:04;;;;;;;;;;;;;;;-0.61;90.70;100430.81;5056212;28;1266;-78
2021/01/01 02:28:29;;;;;;;;;;;;;;;-0.65;91.32;100422.44;5058252;28;913;-78
2021/01/01 02:30:54;;;;;;;;;;;;;;;-0.66;90.64;100428.97;5055941;28;988;-78
2021/01/01 02:33:20;;;;;;;;;;;;;;;-0.63;91.43;100436.50;5056367;28;899;-77
2021/01/01 02:35:45;;;;;;;;;;;;;;;-0.53;91.37;100430.22;5055863;28;1902;-77
2021/01/01 02:38:11;;;;;;;;;;;;;;;-0.38;91.61;100429.34;5056045;28;1358;-77
2021/01/01 02:40:36;;;;;;;;;;;;;;;-0.26;90.91;100428.97;5056073;28;781;-78
2021/01/01 02:43:01;;;;;;;;;;;;;;;-0.18;91.02;100430.31;5055878;28;745;-78
2021/01/01 02:45:27;;;;;;;;;;;;;;;-0.14;90.74;100431.34;5055365;28;950;-78
2021/01/01 02:47:52;;;;;;;;;;;;;;;-0.08;90.53;100422.09;5055779;28;1356;-78
2021/01/01 02:50:17;;;;;;;;;;;;;;;-0.03;89.83;100427.50;5055795;28;912;-78
2021/01/01 02:52:44;;;;;;;;;;;;;;;0.04;90.01;100433.41;5058320;28;825;-77
2021/01/01 02:55:10;;;;;;;;;;;;;;;0.07;89.74;100432.84;5055307;28;1898;-77
2021/01/01 02:57:35;;;;;;;;;;;;;;;0.13;89.42;100436.31;5057866;28;1261;-78
2021/01/01 03:00:01;;;;;;;;;;;;;;;0.21;89.45;100430.28;5055708;28;975;-78
2021/01/01 03:02:27;;;;;;;;;;;;;;;0.28;88.88;100432.69;5055678;28;919;-78
2021/01/01 03:04:52;;;;;;;;;;;;;;;0.32;88.12;100428.28;5054836;28;999;-78
2021/01/01 03:07:17;;;;;;;;;;;;;;;0.36;88.39;100432.03;5055255;28;1282;-77
2021/01/01 03:09:42;;;;;;;;;;;;;;;0.40;88.13;100427.69;5055699;28;853;-78
2021/01/01 03:12:08;;;;;;;;;;;;;;;0.43;88.24;100427.09;5055671;28;1159;-78
2021/01/01 03:14:33;;;;;;;;;;;;;;;0.46;87.76;100431.16;5055247;28;1959;-78
2021/01/01 03:16:58;;;;;;;;;;;;;;;0.52;87.62;100435.44;5053886;28;1279;-78
2021/01/01 03:19:24;;;;;;;;;;;;;;;0.54;87.35;100433.25;5055567;28;781;-78
2021/01/01 03:21:49;;;;;;;;;;;;;;;0.56;87.14;100428.34;5055248;28;798;-78
2021/01/01 03:24:14;;;;;;;;;;;;;;;0.59;86.81;100430.50;5055466;28;856;-77
2021/01/01 03:26:40;;;;;;;;;;;;;;;0.61;87.14;100433.72;5055025;28;1366;-78
2021/01/01 03:29:05;;;;;;;;;;;;;;;0.65;87.08;100431.25;5057881;28;819;-78
2021/01/01 03:31:30;;;;;;;;;;;;;;;0.66;86.89;100425.53;5053916;28;1048;-77
2021/01/01 03:33:56;;;;;;;;;;;;;;;0.69;87.04;100435.00;5057656;28;963;-77
2021/01/01 03:36:21;;;;;;;;;;;;;;;0.70;87.04;100433.91;5058628;28;1959;-78
2021/01/01 03:38:46;;;;;;;;;;;;;;;0.70;86.61;100428.47;5055414;28;976;-77
2021/01/01 03:41:13;;;;;;;;;;;;;;;0.70;86.39;100439.34;5055194;28;1082;-78
2021/01/01 03:43:38;;;;;;;;;;;;;;;0.68;86.39;100436.91;5054570;28;916;-78
2021/01/01 03:46:03;;;;;;;;;;;;;;;0.66;86.39;100430.97;5054712;28;1303;-78
2021/01/01 03:48:29;;;;;;;;;;;;;;;0.63;86.31;100430.72;5053632;28;1020;-78
2021/01/01 03:50:54;;;;;;;;;;;;;;;0.65;86.78;100429.34;5054915;28;861;-78
2021/01/01 03:53:19;;;;;;;;;;;;;;;0.67;86.67;100431.75;5054847;28;796;-78
2021/01/01 03:55:46;;;;;;;;;;;;;;;0.67;86.29;100429.84;5054746;28;1902;-78
2021/01/01 03:58:11;;;;;;;;;;;;;;;0.63;86.34;100428.00;5054867;28;1317;-78
2021/01/01 04:00:36;;;;;;;;;;;;;;;0.64;86.26;100425.00;5053431;28;1132;-78
2021/01/01 04:03:02;;;;;;;;;;;;;;;0.65;86.41;100429.34;5053688;28;977;-78
2021/01/01 04:05:27;;;;;;;;;;;;;;;0.66;86.18;100430.16;5056021;28;984;-77
2021/01/01 04:07:52;;;;;;;;;;;;;;;0.64;86.39;100422.28;5058116;28;1271;-78
2021/01/01 04:10:18;;;;;;;;;;;;;;;0.65;86.23;100423.09;5058824;28;979;-78
2021/01/01 04:12:43;;;;;;;;;;;;;;;0.66;86.27;100427.44;5058978;28;868;-78
2021/01/01 04:15:09;;;;;;;;;;;;;;;0.65;86.11;100429.34;5058508;28;1959;-78
2021/01/01 04:17:34;;;;;;;;;;;;;;;0.67;85.94;100429.03;5058451;28;1281;-78
2021/01/01 04:20:00;;;;;;;;;;;;;;;0.68;86.18;100427.97;5058681;28;817;-78
2021/01/01 04:22:25;;;;;;;;;;;;;;;0.69;86.25;100424.13;5058474;28;889;-78
2021/01/01 04:24:50;;;;;;;;;;;;;;;0.69;86.36;100424.97;5058619;28;836;-78
2021/01/01 04:27:16;;;;;;;;;;;;;;;0.68;86.03;100425.25;5058613;28;1267;-78
2021/01/01 04:29:41;;;;;;;;;;;;;;;0.68;86.18;100426.03;5058491;28;851;-78
2021/01/01 04:32:07;;;;;;;;;;;;;;;0.68;86.06;100425.25;5058430;28;907;-78
2021/01/01 04:34:32;;;;;;;;;;;;;;;0.67;85.98;100423.59;5058270;28;1894;-78
2021/01/01 04:36:58;;;;;;;;;;;;;;;0.66;85.97;100428.25;5058492;28;1724;-78
2021/01/01 04:39:23;;;;;;;;;;;;;;;0.67;86.35;100420.91;5058264;28;888;-78
2021/01/01 04:41:53;;;;;;;;;;;;;;;0.68;86.16;100430.69;5058387;28;854;-78
2021/01/01 04:44:21;;;;;;;;;;;;;;;0.70;85.76;100429.28;5057168;28;843;-78
2021/01/01 04:46:46;;;;;;;;;;;;;;;0.70;85.83;100436.63;5056925;28;1349;-78
2021/01/01 04:49:12;;;;;;;;;;;;;;;0.69;85.70;100441.25;5057077;28;1301;-78
2021/01/01 04:51:37;;;;;;;;;;;;;;;0.71;85.79;100443.66;5058855;28;868;-78
2021/01/01 04:54:03;;;;;;;;;;;;;;;0.72;86.18;100448.03;5058172;28;793;-78
2021/01/01 04:56:28;;;;;;;;;;;;;;;0.72;86.12;100443.38;5057874;28;1894;-78
2021/01/01 04:58:54;;;;;;;;;;;;;;;0.74;85.90;100440.38;5058147;28;1034;-78
2021/01/01 05:01:24;;;;;;;;;;;;;;;0.72;85.92;100435.22;5058247;28;893;-77
2021/01/01 05:03:49;;;;;;;;;;;;;;;0.75;85.83;100444.72;5058156;28;881;-78
2021/01/01 05:06:26;;;;;;;;;;;;;;;0.74;86.02;100445.81;5057594;28;1369;-78
2021/01/01 05:08:52;;;;;;;;;;;;;;;0.74;86.22;100445.81;5056675;28;1440;-78
2021/01/01 05:11:20;;;;;;;;;;;;;;;0.75;85.93;100450.16;5057497;28;877;-77
2021/01/01 05:13:55;;;;;;;;;;;;;;;0.75;85.73;100450.97;5058517;28;904;-77
2021/01/01 05:16:20;;;;;;;;;;;;;;;0.75;85.89;100455.59;5061767;28;1886;-77
2021/01/01 05:18:45;;;;;;;;;;;;;;;0.75;85.84;100459.13;5057460;28;861;-77
2021/01/01 05:21:21;;;;;;;;;;;;;;;0.74;86.02;100457.53;5057927;28;848;-78
2021/01/01 05:23:49;;;;;;;;;;;;;;;0.77;86.15;100453.41;5058439;28;845;-77
2021/01/01 05:26:16;;;;;;;;;;;;;;;0.79;85.79;100467.50;5058223;28;1317;-77
2021/01/01 05:28:50;;;;;;;;;;;;;;;0.79;85.69;100458.56;5057678;28;813;-77
2021/01/01 05:31:18;;;;;;;;;;;;;;;0.80;85.70;100461.00;5057717;28;1051;-77
2021/01/01 05:33:51;;;;;;;;;;;;;;;0.82;85.30;100469.66;5057342;28;1018;-78
2021/01/01 05:36:28;;;;;;;;;;;;;;;0.85;85.87;100462.81;5056964;28;1969;-78
2021/01/01 05:38:53;;;;;;;;;;;;;;;0.88;85.61;100470.41;5057549;28;797;-77
2021/01/01 05:41:29;;;;;;;;;;;;;;;0.90;85.69;100463.59;5057101;28;864;-78
2021/01/01 05:44:25;;;;;;;;;;;;;;;0.90;85.83;100474.47;5057243;28;872;-78
2021/01/01 05:46:56;;;;;;;;;;;;;;;0.90;86.21;100471.75;5046586;28;1363;-77
2021/01/01 05:49:23;;;;;;;;;;;;;;;0.93;86.40;100475.78;5057470;28;817;-78
2021/01/01 05:52:08;;;;;;;;;;;;;;;0.89;86.67;100481.00;5057334;28;995;-78
2021/01/01 05:54:34;;;;;;;;;;;;;;;0.82;86.97;100477.81;5056903;28;1910;-78
2021/01/01 05:57:02;;;;;;;;;;;;;;;0.78;87.60;100479.50;5056683;28;1286;-78
2021/01/01 05:59:28;;;;;;;;;;;;;;;0.76;87.26;100484.38;5055458;28;1171;-78
2021/01/01 06:01:57;;;;;;;;;;;;;;;0.75;87.87;100486.31;5055588;28;1237;-78
2021/01/01 06:04:24;;;;;;;;;;;;;;;0.74;88.17;100481.97;5056638;28;884;-78
2021/01/01 06:06:52;;;;;;;;;;;;;;;0.74;88.02;100481.16;5056450;28;1270;-78
2021/01/01 06:09:19;;;;;;;;;;;;;;;0.74;87.98;100486.59;5056542;28;840;-78
2021/01/01 06:11:59;;;;;;;;;;;;;;;0.73;88.06;100484.97;5056582;28;953;-78
2021/01/01 06:14:32;;;;;;;;;;;;;;;0.73;88.33;100496.66;5056748;28;1914;-78
2021/01/01 06:17:14;;;;;;;;;;;;;;;0.75;88.34;100491.75;5058157;28;1403;-78
2021/01/01 06:19:44;;;;;;;;;;;;;;;0.74;88.43;100498.28;5061047;28;963;-78
2021/01/01 06:22:14;;;;;;;;;;;;;;;0.73;88.27;100498.56;5058831;28;824;-78
2021/01/01 06:24:46;;;;;;;;;;;;;;;0.72;88.65;100499.66;5058303;28;919;-78
2021/01/01 06:27:12;;;;;;;;;;;;;;;0.75;88.15;100499.91;5056259;28;1404;-78
2021/01/01 06:29:41;;;;;;;;;;;;;;;0.75;88.40;100501.81;5055302;28;832;-78
2021/01/01 06:32:08;;;;;;;;;;;;;;;0.73;88.74;100496.66;5056364;28;800;-78
2021/01/01 06:34:34;;;;;;;;;;;;;;;0.73;88.53;100493.94;5055928;28;1902;-78
2021/01/01 06:36:59;;;;;;;;;;;;;;;0.74;88.53;100500.19;5056094;28;1340;-78
2021/01/01 06:39:37;;;;;;;;;;;;;;;0.74;88.44;100500.19;5056199;28;904;-77
2021/01/01 06:42:04;;;;;;;;;;;;;;;0.74;88.37;100506.44;5056102;28;848;-78
2021/01/01 06:44:33;;;;;;;;;;;;;;;0.74;88.84;100501.00;5055749;28;1010;-78
2021/01/01 06:46:59;;;;;;;;;;;;;;;0.74;88.48;100503.72;5055937;28;1275;-78
2021/01/01 06:49:44;;;;;;;;;;;;;;;0.75;88.48;100513.47;5055850;28;962;-78
2021/01/01 06:52:10;;;;;;;;;;;;;;;0.78;88.50;100517.56;5055584;28;1124;-78
2021/01/01 06:55:01;;;;;;;;;;;;;;;0.75;88.29;100521.63;5055811;28;1905;-78
2021/01/01 06:57:28;;;;;;;;;;;;;;;0.71;88.50;100525.19;5055861;28;1355;-78
2021/01/01 06:59:55;;;;;;;;;;;;;;;0.70;88.40;100510.00;5055665;28;805;-78
2021/01/01 07:02:24;;;;;;;;;;;;;;;0.70;88.46;100518.16;5055630;28;880;-78
2021/01/01 07:04:50;;;;;;;;;;;;;;;0.68;88.69;100521.16;5055884;28;910;-78
2021/01/01 07:07:39;;;;;;;;;;;;;;;0.67;88.86;100524.97;5055613;28;1359;-78
2021/01/01 07:10:06;;;;;;;;;;;;;;;0.68;88.61;100520.38;5055616;28;885;-78
2021/01/01 07:12:31;;;;;;;;;;;;;;;0.70;88.62;100523.59;5055640;28;936;-77
2021/01/01 07:14:56;;;;;;;;;;;;;;;0.68;88.54;100536.66;5055508;28;1891;-77
2021/01/01 07:17:22;;;;;;;;;;;;;;;0.71;89.21;100536.91;5055162;28;1373;-77
2021/01/01 07:19:47;;;;;;;;;;;;;;;0.73;88.58;100542.06;5055695;28;835;-78
2021/01/01 07:22:13;;;;;;;;;;;;;;;0.74;88.44;100541.78;5055513;28;794;-78
2021/01/01 07:24:38;;;;;;;;;;;;;;;0.76;88.33;100546.91;5056390;28;1047;-78
2021/01/01 07:27:04;;;;;;;;;;;;;;;0.77;88.68;100543.09;5054993;28;1388;-78
2021/01/01 07:29:30;;;;;;;;;;;;;;;0.79;88.19;100548.25;5055289;28;865;-78
2021/01/01 07:31:57;;;;;;;;;;;;;;;0.78;88.12;100552.88;5055494;28;979;-78
2021/01/01 07:34:22;;;;;;;;;;;;;;;0.80;88.05;100560.75;5056227;28;1953;-77
2021/01/01 07:36:51;;;;;;;;;;;;;;;0.80;88.30;100560.75;5055255;28;1275;-77
2021/01/01 07:39:17;;;;;;;;;;;;;;;0.82;87.81;100564.00;5058039;28;885;-77
2021/01/01 07:41:42;;;;;;;;;;;;;;;0.84;87.67;100557.16;5055033;28;813;-78
2021/01/01 07:44:07;;;;;;;;;;;;;;;0.89;88.11;100570.72;5055001;28;1043;-78
2021/01/01 07:46:33;;;;;;;;;;;;;;;0.92;87.82;100561.19;5055261;28;1380;-78
2021/01/01 07:48:59;;;;;;;;;;;;;;;0.97;87.62;100565.75;5055186;28;1062;-78
2021/01/01 07:51:24;;;;;;;;;;;;;;;0.96;87.38;100562.22;5055592;28;971;-78
2021/01/01 07:53:49;;;;;;;;;;;;;;;0.95;87.33;100568.75;5055118;28;984;-78
2021/01/01 07:56:15;;;;;;;;;;;;;;;0.94;87.86;100564.44;5054929;28;1898;-78
2021/01/01 07:58:40;;;;;;;;;;;;;;;0.91;87.79;100573.16;5055138;28;936;-78
2021/01/01 08:01:08;;;;;;;;;;;;;;;0.91;87.62;100570.44;5055195;28;978;-78
2021/01/01 08:03:36;;;;;;;;;;;;;;;0.93;87.43;100581.84;5054863;28;785;-78
2021/01/01 08:06:02;;;;;;;;;;;;;;;0.92;86.93;100564.72;5054698;28;1306;-78
2021/01/01 08:08:28;;;;;;;;;;;;;;;0.90;87.17;100568.81;5055085;28;861;-78
2021/01/01 08:10:55;;;;;;;;;;;;;;;0.90;86.85;100571.53;5055043;28;929;-78
2021/01/01 08:13:26;;;;;;;;;;;;;;;0.90;86.59;100566.91;5054870;28;824;-78
2021/01/01 08:15:54;;;;;;;;;;;;;;;0.92;86.53;100570.16;5054791;28;1886;-77
2021/01/01 08:18:25;;;;;;;;;;;;;;;0.96;86.40;100569.59;5054805;28;785;-78
2021/01/01 08:20:59;;;;;;;;;;;;;;;0.98;86.15;100561.94;5054625;28;1007;-78
2021/01/01 08:23:25;;;;;;;;;;;;;;;0.98;86.05;100570.13;5054692;28;880;-78
2021/01/01 08:25:53;;;;;;;;;;;;;;;1.03;85.74;100572.78;5054485;28;1346;-80
2021/01/01 08:28:26;;;;;;;;;;;;;;;1.09;85.71;100572.44;5054614;28;841;-77
2021/01/01 08:31:01;;;;;;;;;;;;;;;1.27;85.18;100580.97;5054774;28;951;-78
2021/01/01 08:33:30;;;;;;;;;;;;;;;1.46;84.23;100581.06;5053395;28;1470;-77
2021/01/01 08:36:06;;;;;;;;;;;;;;;1.86;82.91;100570.78;5054722;28;1870;-77
2021/01/01 08:38:32;;;;;;;;;;;;;;;2.21;81.80;100574.13;5055331;28;714;-78
2021/01/01 08:40:58;;;;;;;;;;;;;;;2.40;80.59;100582.31;5055010;28;861;-78
2021/01/01 08:43:25;;;;;;;;;;;;;;;2.31;81.01;100581.38;5055063;28;979;-78
2021/01/01 08:45:50;;;;;;;;;;;;;;;2.31;80.22;100578.63;5056628;28;1390;-78
2021/01/01 08:48:18;;;;;;;;;;;;;;;2.39;80.29;100580.72;5055159;28;836;-77
2021/01/01 08:50:47;;;;;;;;;;;;;;;2.78;79.31;100590.47;5055736;28;757;-78
2021/01/01 08:53:13;;;;;;;;;;;;;;;2.85;78.56;100588.16;5063417;28;860;-78
2021/01/01 08:55:39;;;;;;;;;;;;;;;2.86;78.61;100589.78;5064960;28;1914;-77
2021/01/01 08:58:11;;;;;;;;;;;;;;;2.94;78.36;100593.75;5061361;28;1265;-77
2021/01/01 09:00:38;;;;;;;;;;;;;;;3.10;77.66;100586.94;5062537;28;875;-78
2021/01/01 09:03:04;;;;;;;;;;;;;;;3.10;77.77;100595.13;5061723;28;765;-78
2021/01/01 09:05:31;;;;;;;;;;;;;;;3.35;77.41;100598.50;5067123;28;1148;-78
2021/01/01 09:08:12;;;;;;;;;;;;;;;3.42;77.01;100601.63;5069123;28;1277;-78
2021/01/01 09:10:42;;;;;;;;;;;;;;;3.49;76.53;100604.75;5068449;28;896;-78
2021/01/01 09:13:30;;;;;;;;;;;;;;;3.64;75.29;100605.59;5069102;28;1015;-78
2021/01/01 09:16:12;;;;;;;;;;;;;;;3.61;75.17;100606.22;5068874;28;1898;-78
2021/01/01 09:18:38;;;;;;;;;;;;;;;3.39;76.19;100604.97;5070521;28;895;-78
2021/01/01 09:21:11;;;;;;;;;;;;;;;3.33;76.00;100608.91;5075151;28;960;-78
2021/01/01 09:23:37;;;;;;;;;;;;;;;3.19;76.70;100617.88;5069154;28;987;-78
2021/01/01 09:26:02;;;;;;;;;;;;;;;3.08;77.25;100621.06;5057624;28;1301;-78
2021/01/01 09:28:28;;;;;;;;;;;;;;;2.91;77.59;100627.09;5057540;28;845;-78
2021/01/01 09:30:53;;;;;;;;;;;;;;;2.81;78.11;100626.13;5057047;28;995;-78
2021/01/01 09:33:20;;;;;;;;;;;;;;;2.78;78.31;100620.44;5057251;28;955;-78
2021/01/01 09:35:45;;;;;;;;;;;;;;;2.85;78.90;100626.34;5056994;28;1894;-78
2021/01/01 09:38:11;;;;;;;;;;;;;;;2.77;78.34;100625.09;5056991;28;1294;-77
2021/01/01 09:40:36;;;;;;;;;;;;;;;2.91;78.18;100625.16;5057250;28;883;-78
2021/01/01 09:43:03;;;;;;;;;;;;;;;2.94;78.42;100621.00;5057365;28;895;-78
2021/01/01 09:45:29;;;;;;;;;;;;;;;2.87;78.60;100626.03;5055775;28;905;-77
2021/01/01 09:47:54;;;;;;;;;;;;;;;3.00;78.70;100628.03;5057184;28;1343;-77
2021/01/01 09:50:20;;;;;;;;;;;;;;;3.00;77.77;100630.75;5057075;28;857;-77
2021/01/01 09:52:45;;;;;;;;;;;;;;;3.03;77.83;100641.06;5057302;28;872;-78
2021/01/01 09:55:10;;;;;;;;;;;;;;;2.91;78.32;100635.28;5059360;28;1899;-77
2021/01/01 09:57:40;;;;;;;;;;;;;;;2.77;79.47;100636.00;5058526;28;1254;-77
2021/01/01 10:00:11;;;;;;;;;;;;;;;2.72;79.21;100638.00;5058740;28;957;-77
2021/01/01 10:02:37;;;;;;;;;;;;;;;2.74;79.63;100638.53;5056893;28;1004;-77
2021/01/01 10:05:04;;;;;;;;;;;;;;;2.67;79.37;100640.81;5056606;28;876;-78
2021/01/01 10:07:29;;;;;;;;;;;;;;;2.59;80.32;100639.53;5055452;28;1327;-78
2021/01/01 10:09:55;;;;;;;;;;;;;;;2.59;79.89;100640.34;5057237;28;793;-78
2021/01/01 10:12:21;;;;;;;;;;;;;;;2.56;80.15;100648.31;5056577;28;789;-77
2021/01/01 10:14:46;;;;;;;;;;;;;;;2.54;80.69;100645.88;5056695;28;1894;-78
2021/01/01 10:17:11;;;;;;;;;;;;;;;2.50;81.20;100649.50;5056646;28;1377;-78
2021/01/01 10:19:41;;;;;;;;;;;;;;;2.43;81.07;100649.88;5056819;28;1038;-78
2021/01/01 10:22:07;;;;;;;;;;;;;;;2.34;81.13;100649.72;5056629;28;891;-78
2021/01/01 10:24:33;;;;;;;;;;;;;;;2.37;81.39;100651.03;5056751;28;842;-78
2021/01/01 10:26:58;;;;;;;;;;;;;;;2.33;81.55;100639.09;5056308;28;1258;-77
2021/01/01 10:29:23;;;;;;;;;;;;;;;2.29;81.39;100646.25;5056228;28;908;-78
2021/01/01 10:31:49;;;;;;;;;;;;;;;2.29;81.54;100649.78;5056838;28;844;-78
2021/01/01 10:34:14;;;;;;;;;;;;;;;2.34;82.25;100651.63;5056458;28;844;-78
2021/01/01 10:36:40;;;;;;;;;;;;;;;2.56;81.64;100648.31;5055813;28;1957;-77
2021/01/01 10:39:07;;;;;;;;;;;;;;;2.97;79.77;100650.44;5056190;28;813;-78
2021/01/01 10:41:33;;;;;;;;;;;;;;;3.44;78.21;100645.00;5056405;28;1055;-78
2021/01/01 10:43:59;;;;;;;;;;;;;;;3.69;76.65;100643.75;5056230;28;900;-78
2021/01/01 10:46:24;;;;;;;;;;;;;;;4.24;74.69;100648.38;5056065;28;1274;-77
2021/01/01 10:48:49;;;;;;;;;;;;;;;4.87;73.03;100642.03;5056195;28;864;-78
2021/01/01 10:51:24;;;;;;;;;;;;;;;5.13;72.29;100648.84;5055985;28;980;-77
2021/01/01 10:53:50;;;;;;;;;;;;;;;5.09;72.79;100646.72;5055900;28;875;-78
2021/01/01 10:56:21;;;;;;;;;;;;;;;5.74;70.41;100644.47;5054126;28;1898;-78
2021/01/01 10:58:46;;;;;;;;;;;;;;;5.47;70.18;100646.31;5055873;28;908;-78
2021/01/01 11:01:11;;;;;;;;;;;;;;;5.32;71.39;100648.63;5056101;28;825;-78
2021/01/01 11:03:36;;;;;;;;;;;;;;;5.28;70.92;100649.25;5055605;28;1035;-78
2021/01/01 11:06:02;;;;;;;;;;;;;;;5.08;71.25;100644.28;5055519;28;1267;-78
2021/01/01 11:08:27;;;;;;;;;;;;;;;5.07;71.42;100646.22;5056105;28;970;-78
2021/01/01 11:10:53;;;;;;;;;;;;;;;5.19;71.49;100647.56;5056693;28;873;-79
2021/01/01 11:13:18;;;;;;;;;;;;;;;5.44;70.46;100641.44;5056232;28;778;-78
2021/01/01 12:27:02;;;;;;;;;;;;;;;5.91;71.10;100624.56;5056120;28;1270;-78
2021/01/01 12:29:28;;;;;;;;;;;;;;;6.09;71.17;100614.50;5059782;28;871;-79
2021/01/01 12:31:55;;;;;;;;;;;;;;;6.14;71.07;100617.09;5059369;28;1011;-79
2021/01/01 12:34:20;;;;;;;;;;;;;;;5.59;72.50;100620.28;5058707;28;1257;-79
2021/01/01 12:36:45;;;;;;;;;;;;;;;5.67;72.16;100624.97;5059011;28;1894;-78
2021/01/01 12:39:10;;;;;;;;;;;;;;;5.63;72.33;100621.25;5058543;28;1019;-78
2021/01/01 12:41:37;;;;;;;;;;;;;;;5.67;72.06;100624.97;5058969;28;856;-79
2021/01/01 12:44:02;;;;;;;;;;;;;;;5.49;72.26;100617.81;5058625;28;867;-78
2021/01/01 12:46:28;;;;;;;;;;;;;;;5.81;71.59;100620.19;5057483;28;1292;-78
2021/01/01 12:48:54;;;;;;;;;;;;;;;5.91;70.94;100610.06;5059660;28;901;-79
2021/01/01 12:51:19;;;;;;;;;;;;;;;6.22;70.41;100615.50;5059189;28;951;-79
2021/01/01 12:53:44;;;;;;;;;;;;;;;6.77;68.88;100609.41;5058546;28;845;-78
2021/01/01 12:56:10;;;;;;;;;;;;;;;6.30;70.27;100614.72;5058002;28;1897;-77
2021/01/01 12:58:35;;;;;;;;;;;;;;;6.07;70.31;100622.22;5060735;28;980;-78
2021/01/01 13:01:00;;;;;;;;;;;;;;;6.24;69.37;100621.47;5058175;28;859;-78
2021/01/01 13:03:26;;;;;;;;;;;;;;;6.27;69.35;100614.53;5058322;28;778;-78
2021/01/01 13:05:51;;;;;;;;;;;;;;;5.99;70.54;100618.34;5058235;28;1349;-79
2021/01/01 13:08:16;;;;;;;;;;;;;;;6.20;69.30;100621.28;5058600;28;1031;-78
2021/01/01 13:10:42;;;;;;;;;;;;;;;6.12;69.91;100621.28;5058239;28;857;-78
2021/01/01 13:13:07;;;;;;;;;;;;;;;6.08;70.29;100625.78;5058295;28;1039;-78
2021/01/01 13:15:32;;;;;;;;;;;;;;;5.74;71.17;100630.78;5058182;28;1902;-78
2021/01/01 13:17:57;;;;;;;;;;;;;;;5.47;71.59;100634.53;5057939;28;1270;-78
2021/01/01 13:20:23;;;;;;;;;;;;;;;5.23;73.45;100635.69;5058065;28;1011;-78
2021/01/01 13:22:48;;;;;;;;;;;;;;;5.11;73.29;100640.94;5058163;28;1027;-79
2021/01/01 13:25:16;;;;;;;;;;;;;;;5.03;74.36;100633.47;5059035;28;853;-78
2021/01/01 13:27:44;;;;;;;;;;;;;;;4.97;74.76;100638.25;5058171;28;1346;-78
2021/01/01 13:30:10;;;;;;;;;;;;;;;4.91;75.18;100644.97;5057627;28;865;-78
2021/01/01 13:32:35;;;;;;;;;;;;;;;4.69;76.09;100653.97;5057720;28;801;-78
2021/01/01 13:35:03;;;;;;;;;;;;;;;4.48;76.59;100648.13;5057624;28;1959;-79
2021/01/01 13:37:30;;;;;;;;;;;;;;;4.41;76.87;100648.56;5057580;28;1267;-79
2021/01/01 13:39:55;;;;;;;;;;;;;;;4.37;77.79;100647.53;5057990;28;809;-79
2021/01/01 13:42:20;;;;;;;;;;;;;;;4.17;79.11;100648.81;5059176;28;920;-78
2021/01/01 13:44:46;;;;;;;;;;;;;;;4.04;79.33;100650.41;5057191;28;1357;-79
2021/01/01 13:47:11;;;;;;;;;;;;;;;3.89;81.48;100650.72;5058674;28;1369;-78
2021/01/01 13:49:37;;;;;;;;;;;;;;;3.76;81.77;100647.69;5058671;28;884;-79
2021/01/01 13:52:02;;;;;;;;;;;;;;;3.73;81.22;100647.47;5058335;28;999;-79
2021/01/01 13:54:27;;;;;;;;;;;;;;;3.72;82.86;100649.41;5057907;28;999;-79
2021/01/01 13:56:53;;;;;;;;;;;;;;;3.72;82.05;100645.84;5057916;28;1895;-79
2021/01/01 13:59:18;;;;;;;;;;;;;;;3.73;81.97;100652.94;5058326;28;936;-78
2021/01/01 14:01:43;;;;;;;;;;;;;;;3.72;81.17;100659.50;5056760;28;1452;-79
2021/01/01 14:04:09;;;;;;;;;;;;;;;3.73;81.49;100652.94;5056732;28;1289;-79
2021/01/01 14:06:34;;;;;;;;;;;;;;;3.77;81.42;100653.94;5056157;28;1295;-78
2021/01/01 14:09:01;;;;;;;;;;;;;;;3.81;81.48;100656.88;5057412;28;855;-79
2021/01/01 14:11:26;;;;;;;;;;;;;;;3.81;81.52;100660.44;5058162;28;790;-78